createdAt,value
2023-01-10T00:01:07.644Z,7.20
2023-01-10T00:03:35.574Z,7.20
2023-01-10T00:06:03.378Z,7.20
2023-01-10T00:08:31.273Z,7.30
2023-01-10T00:11:19.065Z,7.30
2023-01-10T00:13:47.292Z,7.30
2023-01-10T00:16:15.360Z,7.20
2023-01-10T00:18:43.250Z,7.20
2023-01-10T00:21:11.393Z,7.30
2023-01-10T00:23:39.333Z,7.30
2023-01-10T00:26:07.359Z,7.30
2023-01-10T00:28:35.298Z,7.30
2023-01-10T00:31:06.795Z,7.30
2023-01-10T00:33:36.649Z,7.30
2023-01-10T00:36:06.682Z,7.20
2023-01-10T00:38:37.875Z,7.30
2023-01-10T00:41:28.389Z,7.30
2023-01-10T00:43:58.068Z,7.30
2023-01-10T00:46:27.655Z,7.20
2023-01-10T00:48:57.195Z,7.20
2023-01-10T00:51:25.199Z,7.20
2023-01-10T00:53:53.081Z,7.30
2023-01-10T00:56:21.078Z,7.20
2023-01-10T00:58:49.110Z,7.20
2023-01-10T01:01:17.058Z,7.20
2023-01-10T01:03:46.458Z,7.10
2023-01-10T01:06:14.349Z,7.10
2023-01-10T01:08:42.175Z,7.20
2023-01-10T01:11:10.053Z,7.20
2023-01-10T01:13:37.921Z,7.20
2023-01-10T01:16:06.339Z,7.20
2023-01-10T01:18:35.202Z,7.20
2023-01-10T01:21:05.645Z,7.20
2023-01-10T01:23:35.370Z,7.30
2023-01-10T01:26:03.658Z,7.30
2023-01-10T01:28:31.617Z,7.20
2023-01-10T01:30:59.616Z,7.20
2023-01-10T01:33:27.858Z,7.20
2023-01-10T01:35:55.790Z,7.20
2023-01-10T01:38:25.048Z,7.20
2023-01-10T01:40:52.913Z,7.20
2023-01-10T01:43:25.139Z,7.10
2023-01-10T01:45:53.891Z,7.10
2023-01-10T01:48:36.598Z,7.10
2023-01-10T01:51:10.836Z,7.10
2023-01-10T01:53:44.885Z,7.10
2023-01-10T01:56:18.537Z,7.10
2023-01-10T01:58:50.989Z,7.10
2023-01-10T02:01:19.082Z,7.10
2023-01-10T02:03:52.320Z,7.10
2023-01-10T02:06:24.662Z,7.10
2023-01-10T02:09:00.052Z,7.10
2023-01-10T02:11:28.048Z,7.20
2023-01-10T02:13:56.757Z,7.10
2023-01-10T02:16:24.688Z,7.10
2023-01-10T02:18:52.614Z,7.00
2023-01-10T02:21:42.009Z,7.00
2023-01-10T02:24:49.379Z,7.00
2023-01-10T02:27:26.323Z,7.00
2023-01-10T02:30:34.667Z,7.00
2023-01-10T02:33:10.979Z,6.90
2023-01-10T02:35:51.777Z,6.90
2023-01-10T02:38:29.754Z,7.00
2023-01-10T02:41:06.467Z,7.00
2023-01-10T02:43:38.713Z,6.90
2023-01-10T02:46:11.202Z,7.00
2023-01-10T02:48:40.458Z,7.00
2023-01-10T02:51:18.176Z,7.00
2023-01-10T02:53:49.821Z,7.00
2023-01-10T02:56:52.177Z,6.90
2023-01-10T03:00:00.805Z,6.90
2023-01-10T03:02:51.039Z,7.00
2023-01-10T03:05:29.950Z,7.00
2023-01-10T03:08:05.639Z,6.90
2023-01-10T03:10:39.836Z,6.90
2023-01-10T03:13:14.084Z,6.80
2023-01-10T03:15:43.208Z,6.80
2023-01-10T03:18:17.269Z,6.80
2023-01-10T03:20:49.037Z,6.80
2023-01-10T03:23:19.589Z,6.80
2023-01-10T03:25:51.208Z,6.80
2023-01-10T03:28:23.478Z,6.80
2023-01-10T03:30:55.338Z,6.80
2023-01-10T03:33:28.000Z,6.80
2023-01-10T03:36:08.793Z,6.80
2023-01-10T03:38:44.641Z,6.80
2023-01-10T03:41:17.577Z,6.70
2023-01-10T03:44:07.175Z,6.70
2023-01-10T03:46:40.537Z,6.70
2023-01-10T03:49:10.404Z,6.70
2023-01-10T03:51:41.078Z,6.70
2023-01-10T03:54:09.178Z,6.80
2023-01-10T03:56:46.073Z,6.70
2023-01-10T03:59:14.226Z,6.70
2023-01-10T04:01:42.189Z,6.60
2023-01-10T04:04:11.438Z,6.70
2023-01-10T04:06:41.000Z,6.70
2023-01-10T04:09:09.378Z,6.60
2023-01-10T04:11:37.249Z,6.50
2023-01-10T04:14:05.426Z,6.40
2023-01-10T04:16:33.340Z,6.50
2023-01-10T04:19:01.359Z,6.50
2023-01-10T04:21:29.189Z,6.40
2023-01-10T04:23:58.400Z,6.40
2023-01-10T04:26:26.295Z,6.30
2023-01-10T04:28:54.156Z,6.30
2023-01-10T04:31:22.743Z,6.20
2023-01-10T04:33:50.672Z,6.20
2023-01-10T04:36:18.492Z,6.20
2023-01-10T04:38:46.500Z,6.20
2023-01-10T04:41:15.683Z,6.10
2023-01-10T04:43:43.594Z,6.20
2023-01-10T04:46:11.506Z,6.10
2023-01-10T04:48:39.421Z,6.20
2023-01-10T04:51:07.460Z,6.20
2023-01-10T04:53:35.350Z,6.20
2023-01-10T04:56:05.262Z,6.10
2023-01-10T04:58:35.566Z,6.10
2023-01-10T05:01:08.960Z,6.20
2023-01-10T05:03:37.023Z,6.20
2023-01-10T05:06:05.418Z,6.20
2023-01-10T05:08:33.726Z,6.20
2023-01-10T05:11:01.718Z,6.10
2023-01-10T05:13:29.613Z,6.20
2023-01-10T05:15:59.391Z,6.20
2023-01-10T05:18:27.626Z,6.20
2023-01-10T05:21:00.827Z,6.20
2023-01-10T05:23:29.454Z,6.30
2023-01-10T05:25:57.385Z,6.30
2023-01-10T05:28:25.628Z,6.20
2023-01-10T05:30:53.554Z,6.30
2023-01-10T05:33:22.788Z,6.20
2023-01-10T05:35:50.822Z,6.30
2023-01-10T05:38:18.835Z,6.30
2023-01-10T05:40:46.645Z,6.30
2023-01-10T05:43:14.562Z,6.30
2023-01-10T05:45:43.742Z,6.30
2023-01-10T05:48:11.596Z,6.30
2023-01-10T05:50:40.761Z,6.30
2023-01-10T05:53:08.731Z,6.30
2023-01-10T05:55:36.543Z,6.30
2023-01-10T05:58:04.819Z,6.40
2023-01-10T06:00:32.643Z,6.30
2023-01-10T06:03:01.132Z,6.40
2023-01-10T06:05:29.132Z,6.30
2023-01-10T06:07:58.348Z,6.40
2023-01-10T06:10:27.169Z,6.40
2023-01-10T06:12:55.479Z,6.30
2023-01-10T06:15:23.343Z,6.30
2023-01-10T06:17:51.164Z,6.30
2023-01-10T06:20:19.085Z,6.30
2023-01-10T06:22:46.920Z,6.30
2023-01-10T06:25:16.322Z,6.20
2023-01-10T06:27:45.214Z,6.10
2023-01-10T06:30:14.684Z,6.10
2023-01-10T06:32:43.211Z,6.10
2023-01-10T06:35:11.599Z,6.10
2023-01-10T06:37:39.660Z,6.00
2023-01-10T06:40:08.672Z,6.00
2023-01-10T06:42:38.811Z,6.00
2023-01-10T06:45:07.677Z,6.00
2023-01-10T06:47:35.949Z,5.90
2023-01-10T06:50:04.981Z,5.80
2023-01-10T06:52:33.127Z,5.90
2023-01-10T06:55:01.055Z,5.80
2023-01-10T06:57:29.295Z,5.80
2023-01-10T06:59:58.701Z,5.80
2023-01-10T07:02:26.631Z,5.80
2023-01-10T07:04:54.454Z,5.80
2023-01-10T07:07:22.452Z,5.70
2023-01-10T07:09:50.279Z,5.70
2023-01-10T07:12:18.555Z,5.70
2023-01-10T07:14:46.428Z,5.80
2023-01-10T07:17:15.717Z,5.70
2023-01-10T07:19:43.591Z,5.80
2023-01-10T07:22:12.676Z,5.70
2023-01-10T07:24:40.595Z,5.70
2023-01-10T07:27:08.442Z,5.70
2023-01-10T07:29:36.366Z,5.70
2023-01-10T07:32:04.276Z,5.70
2023-01-10T07:34:33.599Z,5.60
2023-01-10T07:37:02.654Z,5.60
2023-01-10T07:39:30.505Z,5.60
2023-01-10T07:41:58.380Z,5.60
2023-01-10T07:44:26.309Z,5.60
2023-01-10T07:46:54.162Z,5.60
2023-01-10T07:49:21.973Z,5.60
2023-01-10T07:51:51.242Z,5.60
2023-01-10T07:54:19.107Z,5.60
2023-01-10T07:56:47.931Z,5.60
2023-01-10T07:59:15.830Z,5.60
2023-01-10T08:01:43.674Z,5.60
2023-01-10T08:04:11.576Z,5.60
2023-01-10T08:06:39.417Z,5.60
2023-01-10T08:09:08.613Z,5.60
2023-01-10T08:11:36.535Z,5.60
2023-01-10T08:14:04.386Z,5.60
2023-01-10T08:16:32.301Z,5.70
2023-01-10T08:19:00.319Z,5.60
2023-01-10T08:21:28.164Z,5.60
2023-01-10T08:23:56.147Z,5.60
2023-01-10T08:26:25.411Z,5.60
2023-01-10T08:28:53.372Z,5.60
2023-01-10T08:31:21.277Z,5.60
2023-01-10T08:33:49.136Z,5.70
2023-01-10T08:36:18.258Z,5.70
2023-01-10T08:38:47.740Z,5.80
2023-01-10T08:41:15.933Z,5.80
2023-01-10T08:43:45.134Z,5.80
2023-01-10T08:46:13.078Z,5.80
2023-01-10T08:48:41.015Z,5.80
2023-01-10T08:51:09.805Z,5.80
2023-01-10T08:53:39.860Z,5.80
2023-01-10T08:56:08.503Z,5.90
2023-01-10T08:58:36.804Z,5.90
2023-01-10T09:01:07.033Z,5.90
2023-01-10T09:03:34.971Z,5.90
2023-01-10T09:06:03.514Z,5.90
2023-01-10T09:08:31.388Z,6.00
2023-01-10T09:11:00.147Z,6.00
2023-01-10T09:13:28.893Z,6.10
2023-01-10T09:15:57.611Z,6.10
2023-01-10T09:18:27.573Z,6.10
2023-01-10T09:20:55.372Z,6.20
2023-01-10T09:23:24.950Z,6.30
2023-01-10T09:25:54.338Z,6.30
2023-01-10T09:28:24.148Z,6.40
2023-01-10T09:30:52.441Z,6.40
2023-01-10T09:33:20.751Z,6.40
2023-01-10T09:35:50.106Z,6.40
2023-01-10T09:38:22.132Z,6.50
2023-01-10T09:41:17.927Z,6.50
2023-01-10T09:44:01.358Z,6.50
2023-01-10T09:46:40.776Z,6.50
2023-01-10T09:49:20.290Z,6.50
2023-01-10T09:51:51.744Z,6.50
2023-01-10T09:54:26.941Z,6.50
2023-01-10T09:56:56.914Z,6.50
2023-01-10T09:59:27.339Z,6.60
2023-01-10T10:02:00.651Z,6.60
2023-01-10T10:04:33.116Z,6.70
2023-01-10T10:07:04.060Z,6.70
2023-01-10T10:09:35.221Z,6.70
2023-01-10T10:12:27.064Z,6.80
2023-01-10T10:15:08.921Z,6.80
2023-01-10T10:17:43.985Z,6.80
2023-01-10T10:20:30.414Z,6.80
2023-01-10T10:23:16.325Z,6.70
2023-01-10T10:25:59.071Z,6.80
2023-01-10T10:28:59.027Z,6.80
2023-01-10T10:31:46.014Z,6.90
2023-01-10T10:34:33.027Z,6.90
2023-01-10T10:37:05.537Z,7.00
2023-01-10T10:39:39.255Z,6.90
2023-01-10T10:42:12.623Z,7.00
2023-01-10T10:44:44.376Z,7.00
2023-01-10T10:47:16.433Z,7.00
2023-01-10T10:49:47.844Z,7.10
2023-01-10T10:52:22.681Z,7.10
2023-01-10T10:54:52.442Z,7.10
2023-01-10T10:57:23.492Z,7.10
2023-01-10T10:59:51.491Z,7.20
2023-01-10T11:02:28.831Z,7.20
2023-01-10T11:05:00.321Z,7.20
2023-01-10T11:07:33.299Z,7.20
2023-01-10T11:10:14.156Z,7.10
2023-01-10T11:12:47.832Z,7.10
2023-01-10T11:15:36.830Z,7.10
2023-01-10T11:18:07.282Z,7.10
2023-01-10T11:20:35.988Z,7.10
2023-01-10T11:23:05.344Z,7.10
2023-01-10T11:25:34.919Z,7.10
2023-01-10T11:28:02.872Z,7.10
2023-01-10T11:30:33.503Z,7.10
2023-01-10T11:33:03.281Z,7.20
2023-01-10T11:35:36.269Z,7.20
2023-01-10T11:38:05.829Z,7.10
2023-01-10T11:40:37.799Z,7.10
2023-01-10T11:43:26.208Z,7.10
2023-01-10T11:45:57.173Z,7.10
2023-01-10T11:48:48.189Z,7.20
2023-01-10T11:51:23.544Z,7.20
2023-01-10T11:53:58.555Z,7.30
2023-01-10T11:56:33.034Z,7.30
2023-01-10T11:59:12.283Z,7.20
2023-01-10T12:01:44.105Z,7.20
2023-01-10T12:04:16.588Z,7.20
2023-01-10T12:06:46.696Z,7.20
2023-01-10T12:09:39.702Z,7.20
2023-01-10T12:12:21.191Z,7.20
2023-01-10T12:14:50.151Z,7.20
2023-01-10T12:17:24.703Z,7.20
2023-01-10T12:19:55.259Z,7.30
2023-01-10T12:22:29.359Z,7.30
2023-01-10T12:24:59.674Z,7.30
2023-01-10T12:27:30.286Z,7.40
2023-01-10T12:30:05.583Z,7.40
2023-01-10T12:32:40.355Z,7.30
2023-01-10T12:35:15.051Z,7.30
2023-01-10T12:37:49.273Z,7.30
2023-01-10T12:40:20.298Z,7.30
2023-01-10T12:43:15.923Z,7.30
2023-01-10T12:45:50.128Z,7.30
2023-01-10T12:48:25.178Z,7.40
2023-01-10T12:50:58.661Z,7.40
2023-01-10T12:53:32.921Z,7.50
2023-01-10T12:56:05.847Z,7.50
2023-01-10T12:58:42.923Z,7.50
2023-01-10T13:01:15.930Z,7.60
2023-01-10T13:03:45.048Z,7.60
2023-01-10T13:06:21.796Z,7.70
2023-01-10T13:08:50.477Z,7.60
2023-01-10T13:11:23.669Z,7.70
2023-01-10T13:13:57.880Z,7.60
2023-01-10T13:16:34.367Z,7.70
2023-01-10T13:19:05.590Z,7.70
2023-01-10T13:21:35.110Z,7.70
2023-01-10T13:24:05.332Z,7.70
2023-01-10T13:26:50.955Z,7.70
2023-01-10T13:29:22.445Z,7.80
2023-01-10T13:31:57.069Z,7.80
2023-01-10T13:34:28.526Z,7.80
2023-01-10T13:36:59.183Z,7.70
2023-01-10T13:39:35.198Z,7.70
2023-01-10T13:42:46.056Z,7.70
2023-01-10T13:45:24.201Z,7.70
2023-01-10T13:48:00.217Z,7.70
2023-01-10T13:50:57.881Z,7.60
2023-01-10T13:53:52.762Z,7.60
2023-01-10T13:56:39.385Z,7.70
2023-01-10T13:59:30.907Z,7.70
2023-01-10T14:02:19.790Z,7.70
2023-01-10T14:04:51.843Z,7.70
2023-01-10T14:07:25.312Z,7.80
2023-01-10T14:09:54.201Z,7.80
2023-01-10T14:12:29.646Z,7.80
2023-01-10T14:15:01.591Z,7.70
2023-01-10T14:17:32.781Z,7.70
2023-01-10T14:20:18.341Z,7.70
2023-01-10T14:22:59.313Z,7.70
2023-01-10T14:25:28.466Z,7.70
2023-01-10T14:27:58.908Z,7.60
2023-01-10T14:30:29.771Z,7.60
2023-01-10T14:33:02.767Z,7.60
2023-01-10T14:35:37.294Z,7.60
2023-01-10T14:38:06.350Z,7.60
2023-01-10T14:40:40.819Z,7.60
2023-01-10T14:43:13.641Z,7.60
2023-01-10T14:45:49.031Z,7.50
2023-01-10T14:48:27.680Z,7.50
2023-01-10T14:51:16.745Z,7.40
2023-01-10T14:53:44.866Z,7.40
2023-01-10T14:56:20.733Z,7.40
2023-01-10T14:58:48.770Z,7.40
2023-01-10T15:01:22.575Z,7.40
2023-01-10T15:03:53.114Z,7.40
2023-01-10T15:06:21.131Z,7.40
2023-01-10T15:08:57.770Z,7.40
2023-01-10T15:11:27.772Z,7.40
2023-01-10T15:14:00.406Z,7.40
2023-01-10T15:16:29.774Z,7.40
2023-01-10T15:18:59.202Z,7.40
2023-01-10T15:21:27.326Z,7.40
2023-01-10T15:23:55.216Z,7.40
2023-01-10T15:26:29.580Z,7.40
2023-01-10T15:29:10.193Z,7.40
2023-01-10T15:31:39.155Z,7.40
2023-01-10T15:34:15.827Z,7.40
2023-01-10T15:36:47.288Z,7.40
2023-01-10T15:39:22.192Z,7.30
2023-01-10T15:41:51.271Z,7.30
2023-01-10T15:44:39.016Z,7.30
2023-01-10T15:47:27.798Z,7.20
2023-01-10T15:49:58.090Z,7.30
2023-01-10T15:52:26.037Z,7.30
2023-01-10T15:54:56.709Z,7.20
2023-01-10T15:57:29.924Z,7.30
2023-01-10T15:59:59.024Z,7.20
2023-01-10T16:02:31.581Z,7.30
2023-01-10T16:05:08.502Z,7.30
2023-01-10T16:07:42.783Z,7.20
2023-01-10T16:10:21.593Z,7.30
2023-01-10T16:13:09.365Z,7.30
2023-01-10T16:15:40.596Z,7.20
2023-01-10T16:18:08.949Z,7.20
2023-01-10T16:20:41.317Z,7.20
2023-01-10T16:23:17.206Z,7.20
2023-01-10T16:25:47.242Z,7.10
2023-01-10T16:28:17.099Z,7.10
2023-01-10T16:30:46.758Z,7.10
2023-01-10T16:33:17.492Z,7.10
2023-01-10T16:35:47.842Z,7.10
2023-01-10T16:38:17.602Z,7.10
2023-01-10T16:40:49.725Z,7.10
2023-01-10T16:43:19.783Z,7.10
2023-01-10T16:45:48.846Z,7.10
2023-01-10T16:48:18.008Z,7.00
2023-01-10T16:50:48.529Z,7.00
2023-01-10T16:53:18.686Z,7.00
2023-01-10T16:55:48.789Z,6.90
2023-01-10T16:58:18.236Z,7.00
2023-01-10T17:00:49.737Z,7.00
2023-01-10T17:03:21.488Z,7.00
2023-01-10T17:05:51.544Z,7.00
2023-01-10T17:08:21.493Z,7.00
2023-01-10T17:10:51.972Z,7.10
2023-01-10T17:13:26.912Z,7.10
2023-01-10T17:15:54.836Z,7.00
2023-01-10T17:18:24.734Z,7.00
2023-01-10T17:20:54.009Z,7.00
2023-01-10T17:23:22.023Z,6.90
2023-01-10T17:25:50.605Z,6.90
2023-01-10T17:28:19.372Z,6.90
2023-01-10T17:30:47.262Z,6.90
2023-01-10T17:33:15.209Z,6.80
2023-01-10T17:35:43.733Z,6.90
2023-01-10T17:38:16.140Z,6.80
2023-01-10T17:40:45.211Z,6.80
2023-01-10T17:43:14.391Z,6.80
2023-01-10T17:45:43.268Z,6.70
2023-01-10T17:48:12.934Z,6.70
2023-01-10T17:50:40.802Z,6.60
2023-01-10T17:53:08.599Z,6.70
2023-01-10T17:55:38.015Z,6.70
2023-01-10T17:58:05.920Z,6.70
2023-01-10T18:00:33.756Z,6.70
2023-01-10T18:03:01.760Z,6.70
2023-01-10T18:05:29.668Z,6.70
2023-01-10T18:07:57.458Z,6.70
2023-01-10T18:10:26.011Z,6.70
2023-01-10T18:12:55.269Z,6.70
2023-01-10T18:15:23.205Z,6.70
2023-01-10T18:17:51.351Z,6.60
2023-01-10T18:20:20.048Z,6.70
2023-01-10T18:23:05.529Z,6.70
2023-01-10T18:25:33.447Z,6.60
2023-01-10T18:28:02.578Z,6.60
2023-01-10T18:30:30.680Z,6.60
2023-01-10T18:32:58.532Z,6.50
2023-01-10T18:35:27.881Z,6.50
2023-01-10T18:37:55.945Z,6.50
2023-01-10T18:40:23.765Z,6.60
2023-01-10T18:42:53.651Z,6.60
2023-01-10T18:45:26.257Z,6.50
2023-01-10T18:47:56.241Z,6.50
2023-01-10T18:50:24.421Z,6.50
2023-01-10T18:52:52.367Z,6.40
2023-01-10T18:55:20.395Z,6.50
2023-01-10T18:57:49.035Z,6.50
2023-01-10T19:00:17.691Z,6.50
2023-01-10T19:02:47.338Z,6.50
2023-01-10T19:05:15.379Z,6.50
2023-01-10T19:07:43.256Z,6.50
2023-01-10T19:10:11.895Z,6.50
2023-01-10T19:12:42.220Z,6.50
2023-01-10T19:15:11.152Z,6.50
2023-01-10T19:17:39.067Z,6.60
2023-01-10T19:20:10.106Z,6.50
2023-01-10T19:22:37.992Z,6.60
2023-01-10T19:25:06.626Z,6.60
2023-01-10T19:27:34.714Z,6.50
2023-01-10T19:30:02.682Z,6.50
2023-01-10T19:32:30.657Z,6.60
2023-01-10T19:34:58.549Z,6.50
2023-01-10T19:37:27.768Z,6.60
2023-01-10T19:39:55.535Z,6.60
2023-01-10T19:42:25.879Z,6.50
2023-01-10T19:44:53.864Z,6.60
2023-01-10T19:47:21.716Z,6.60
2023-01-10T19:49:51.067Z,6.60
2023-01-10T19:52:18.946Z,6.60
2023-01-10T19:54:49.714Z,6.60
2023-01-10T19:57:17.601Z,6.60
2023-01-10T19:59:48.960Z,6.60
2023-01-10T20:02:16.903Z,6.60
2023-01-10T20:04:45.724Z,6.60
2023-01-10T20:07:13.575Z,6.70
2023-01-10T20:09:41.360Z,6.60
2023-01-10T20:12:12.481Z,6.60
2023-01-10T20:14:40.673Z,6.60
2023-01-10T20:17:09.160Z,6.60
2023-01-10T20:19:37.032Z,6.70
2023-01-10T20:22:04.828Z,6.70
2023-01-10T20:24:32.793Z,6.70
2023-01-10T20:27:04.383Z,6.70
2023-01-10T20:29:34.347Z,6.70
2023-01-10T20:32:03.161Z,6.70
2023-01-10T20:34:31.134Z,6.70
2023-01-10T20:36:59.048Z,6.70
2023-01-10T20:39:27.155Z,6.70
2023-01-10T20:41:55.097Z,6.70
2023-01-10T20:44:23.404Z,6.70
2023-01-10T20:46:52.677Z,6.60
2023-01-10T20:49:20.512Z,6.60
2023-01-10T20:51:49.862Z,6.60
2023-01-10T20:54:17.727Z,6.60
2023-01-10T20:56:45.593Z,6.60
2023-01-10T20:59:13.447Z,6.50
2023-01-10T21:01:41.307Z,6.50
2023-01-10T21:04:10.776Z,6.50
2023-01-10T21:06:38.632Z,6.50
2023-01-10T21:09:07.165Z,6.50
2023-01-10T21:11:51.532Z,6.50
2023-01-10T21:14:22.930Z,6.40
2023-01-10T21:16:50.813Z,6.40
2023-01-10T21:19:20.524Z,6.40
2023-01-10T21:21:48.607Z,6.40
2023-01-10T21:24:16.620Z,6.30
2023-01-10T21:26:44.407Z,6.40
2023-01-10T21:29:13.318Z,6.40
2023-01-10T21:31:41.353Z,6.30
2023-01-10T21:34:09.226Z,6.20
2023-01-10T21:36:38.416Z,6.20
2023-01-10T21:39:06.279Z,6.20
2023-01-10T21:41:51.803Z,6.20
2023-01-10T21:44:20.372Z,6.20
2023-01-10T21:46:50.988Z,6.20
2023-01-10T21:49:18.969Z,6.20
2023-01-10T21:51:48.235Z,6.20
2023-01-10T21:54:16.247Z,6.30
2023-01-10T21:56:44.426Z,6.20
2023-01-10T21:59:12.409Z,6.20
2023-01-10T22:01:40.244Z,6.20
2023-01-10T22:04:08.162Z,6.30
2023-01-10T22:06:36.014Z,6.20
2023-01-10T22:09:05.380Z,6.20
2023-01-10T22:11:33.255Z,6.20
2023-01-10T22:14:01.135Z,6.30
2023-01-10T22:16:29.023Z,6.30
2023-01-10T22:18:56.828Z,6.30
2023-01-10T22:21:24.746Z,6.30
2023-01-10T22:23:52.592Z,6.20
2023-01-10T22:26:21.867Z,6.20
2023-01-10T22:28:49.752Z,6.20
2023-01-10T22:31:17.625Z,6.20
2023-01-10T22:33:45.605Z,6.20
2023-01-10T22:36:16.420Z,6.10
2023-01-10T22:38:44.855Z,6.20
2023-01-10T22:41:14.633Z,6.20
2023-01-10T22:43:44.538Z,6.10
2023-01-10T22:46:15.344Z,6.10
2023-01-10T22:48:43.330Z,6.10
2023-01-10T22:51:11.395Z,6.10
2023-01-10T22:53:39.410Z,6.10
2023-01-10T22:56:10.477Z,6.10
2023-01-10T22:58:38.747Z,6.10
2023-01-10T23:01:08.903Z,6.10
2023-01-10T23:03:36.890Z,6.10
2023-01-10T23:06:05.098Z,6.10
2023-01-10T23:08:33.415Z,6.10
2023-01-10T23:11:01.876Z,6.10
2023-01-10T23:13:30.911Z,6.10
2023-01-10T23:15:59.951Z,6.10
2023-01-10T23:18:29.915Z,6.10
2023-01-10T23:20:58.084Z,6.10
2023-01-10T23:23:26.584Z,6.10
2023-01-10T23:26:02.166Z,6.10
2023-01-10T23:28:30.750Z,6.10
2023-01-10T23:30:59.111Z,6.10
2023-01-10T23:33:27.045Z,6.10
2023-01-10T23:35:56.222Z,6.10
2023-01-10T23:38:24.177Z,6.00
2023-01-10T23:40:52.007Z,6.10
2023-01-10T23:43:19.839Z,6.00
2023-01-10T23:45:47.717Z,6.10
2023-01-10T23:48:15.720Z,6.00
2023-01-10T23:50:43.531Z,6.10
2023-01-10T23:53:12.675Z,6.00
2023-01-10T23:55:40.461Z,6.00
2023-01-10T23:58:08.275Z,6.10
